KM63

McGregor Range

Mcgregor Range, New Mexico, USA
METAR KM63 162358Z AUTO 02003KT 10SM SCT120 BKN130 12/M08 A3023 RMK AO2 SLPNO WND DATA ESTMD T01191083 10154 20119 56004
Observed Flight Rules
Dec-16 @ 23:58 UTC (26 minutes ago) Visual Flight Rules
Wind Visibility Clouds
20° at 3 knots 10 miles
  • Scattered at 12,000' AGL
  • Broken at 13,000' AGL
Temperatures Readings
Current 12°C / 54°F
Dewpoint -8°C / 18°F
Humidity 24%
Altimeter 30.23" Hg
Pressure 1024 hPa
Elevation 1283
METAR KM63 162358Z AUTO 02003KT 10SM SCT120 BKN130 12/M08 A3023 RMK AO2 SLPNO WND DATA ESTMD T01191083 10154 20119 56004
Observed Flight Rules
Dec-16 @ 23:58 UTC
(26 minutes ago)
VFR
Wind Visibility
20° at 3 knots 10 miles
Clouds
  • Scattered at 12,000' AGL
  • Broken at 13,000' AGL
Temperature Dewpoint
12°C / 54°F -8°C / 18°F
Humidity Altimeter Pressure
24% 30.23" Hg 1024 hPa